sensor_id;sensor_type;location;lat;lon;timestamp;P1;durP1;ratioP1;P2;durP2;ratioP2
35150;SDS011;55720;51.972;4.624;2023-05-03T00:00:27;7.00;;;3.10;;
35150;SDS011;55720;51.972;4.624;2023-05-03T00:02:53;7.63;;;3.45;;
35150;SDS011;55720;51.972;4.624;2023-05-03T00:05:21;4.70;;;3.03;;
35150;SDS011;55720;51.972;4.624;2023-05-03T00:07:46;5.15;;;3.30;;
35150;SDS011;55720;51.972;4.624;2023-05-03T00:10:12;5.10;;;3.50;;
35150;SDS011;55720;51.972;4.624;2023-05-03T00:12:40;5.93;;;3.53;;
35150;SDS011;55720;51.972;4.624;2023-05-03T00:15:07;7.05;;;3.63;;
35150;SDS011;55720;51.972;4.624;2023-05-03T00:17:33;6.25;;;4.13;;
35150;SDS011;55720;51.972;4.624;2023-05-03T00:19:59;4.35;;;3.55;;
35150;SDS011;55720;51.972;4.624;2023-05-03T00:22:25;6.95;;;3.55;;
35150;SDS011;55720;51.972;4.624;2023-05-03T00:24:51;6.65;;;3.78;;
35150;SDS011;55720;51.972;4.624;2023-05-03T00:27:19;4.70;;;3.55;;
35150;SDS011;55720;51.972;4.624;2023-05-03T00:29:44;7.72;;;4.40;;
35150;SDS011;55720;51.972;4.624;2023-05-03T00:32:10;6.35;;;3.97;;
35150;SDS011;55720;51.972;4.624;2023-05-03T00:34:36;7.47;;;4.32;;
35150;SDS011;55720;51.972;4.624;2023-05-03T00:37:02;7.95;;;4.32;;
35150;SDS011;55720;51.972;4.624;2023-05-03T00:39:28;6.07;;;3.30;;
35150;SDS011;55720;51.972;4.624;2023-05-03T00:41:56;4.50;;;4.10;;
35150;SDS011;55720;51.972;4.624;2023-05-03T00:44:25;4.78;;;3.35;;
35150;SDS011;55720;51.972;4.624;2023-05-03T00:46:50;4.55;;;3.75;;
35150;SDS011;55720;51.972;4.624;2023-05-03T00:49:16;6.90;;;4.00;;
35150;SDS011;55720;51.972;4.624;2023-05-03T00:51:42;5.38;;;3.95;;
35150;SDS011;55720;51.972;4.624;2023-05-03T00:54:08;8.45;;;3.70;;
35150;SDS011;55720;51.972;4.624;2023-05-03T00:56:34;5.65;;;3.95;;
35150;SDS011;55720;51.972;4.624;2023-05-03T00:59:01;5.75;;;3.60;;
35150;SDS011;55720;51.972;4.624;2023-05-03T01:01:27;5.07;;;4.03;;
35150;SDS011;55720;51.972;4.624;2023-05-03T01:03:54;5.25;;;4.00;;
35150;SDS011;55720;51.972;4.624;2023-05-03T01:06:28;5.13;;;3.92;;
35150;SDS011;55720;51.972;4.624;2023-05-03T01:14:38;5.72;;;3.95;;
35150;SDS011;55720;51.972;4.624;2023-05-03T01:17:11;5.63;;;4.03;;
35150;SDS011;55720;51.972;4.624;2023-05-03T01:19:44;6.72;;;4.45;;
35150;SDS011;55720;51.972;4.624;2023-05-03T01:25:08;10.80;;;5.57;;
35150;SDS011;55720;51.972;4.624;2023-05-03T01:27:34;9.18;;;3.80;;
35150;SDS011;55720;51.972;4.624;2023-05-03T01:30:02;6.63;;;4.50;;
35150;SDS011;55720;51.972;4.624;2023-05-03T01:35:22;7.88;;;4.07;;
35150;SDS011;55720;51.972;4.624;2023-05-03T01:37:59;7.03;;;4.55;;
35150;SDS011;55720;51.972;4.624;2023-05-03T01:40:25;5.93;;;4.97;;
35150;SDS011;55720;51.972;4.624;2023-05-03T01:42:54;7.80;;;4.72;;
35150;SDS011;55720;51.972;4.624;2023-05-03T01:45:40;8.45;;;4.25;;
35150;SDS011;55720;51.972;4.624;2023-05-03T01:48:09;7.13;;;4.43;;
35150;SDS011;55720;51.972;4.624;2023-05-03T01:50:39;8.63;;;6.05;;
35150;SDS011;55720;51.972;4.624;2023-05-03T01:53:04;10.50;;;4.28;;
35150;SDS011;55720;51.972;4.624;2023-05-03T01:55:29;12.02;;;4.78;;
35150;SDS011;55720;51.972;4.624;2023-05-03T01:57:55;10.20;;;4.47;;
35150;SDS011;55720;51.972;4.624;2023-05-03T02:00:20;13.60;;;5.05;;
35150;SDS011;55720;51.972;4.624;2023-05-03T02:02:46;11.85;;;5.22;;
35150;SDS011;55720;51.972;4.624;2023-05-03T02:05:11;8.98;;;5.03;;
35150;SDS011;55720;51.972;4.624;2023-05-03T02:07:37;9.02;;;4.13;;
35150;SDS011;55720;51.972;4.624;2023-05-03T02:10:03;9.95;;;4.78;;
35150;SDS011;55720;51.972;4.624;2023-05-03T02:12:29;9.20;;;4.32;;
35150;SDS011;55720;51.972;4.624;2023-05-03T02:14:55;4.95;;;3.85;;
35150;SDS011;55720;51.972;4.624;2023-05-03T02:17:20;9.23;;;4.50;;
35150;SDS011;55720;51.972;4.624;2023-05-03T02:19:46;10.13;;;3.92;;
35150;SDS011;55720;51.972;4.624;2023-05-03T02:22:11;10.88;;;4.20;;
35150;SDS011;55720;51.972;4.624;2023-05-03T02:24:36;6.80;;;3.67;;
35150;SDS011;55720;51.972;4.624;2023-05-03T02:27:04;5.15;;;3.55;;
35150;SDS011;55720;51.972;4.624;2023-05-03T02:29:29;7.00;;;3.63;;
35150;SDS011;55720;51.972;4.624;2023-05-03T02:31:55;4.78;;;3.80;;
35150;SDS011;55720;51.972;4.624;2023-05-03T02:34:21;6.63;;;3.65;;
35150;SDS011;55720;51.972;4.624;2023-05-03T02:36:46;8.25;;;3.67;;
35150;SDS011;55720;51.972;4.624;2023-05-03T02:39:11;5.97;;;3.85;;
35150;SDS011;55720;51.972;4.624;2023-05-03T02:41:37;8.48;;;3.90;;
35150;SDS011;55720;51.972;4.624;2023-05-03T02:44:02;7.60;;;3.42;;
35150;SDS011;55720;51.972;4.624;2023-05-03T02:46:28;6.68;;;3.45;;
35150;SDS011;55720;51.972;4.624;2023-05-03T02:48:53;6.10;;;3.40;;
35150;SDS011;55720;51.972;4.624;2023-05-03T02:51:18;11.23;;;3.80;;
35150;SDS011;55720;51.972;4.624;2023-05-03T02:53:44;8.88;;;3.60;;
35150;SDS011;55720;51.972;4.624;2023-05-03T02:56:10;5.40;;;3.47;;
35150;SDS011;55720;51.972;4.624;2023-05-03T02:58:35;6.22;;;3.97;;
35150;SDS011;55720;51.972;4.624;2023-05-03T03:01:00;8.13;;;3.70;;
35150;SDS011;55720;51.972;4.624;2023-05-03T03:03:26;7.28;;;3.72;;
35150;SDS011;55720;51.972;4.624;2023-05-03T03:05:51;6.85;;;3.88;;
35150;SDS011;55720;51.972;4.624;2023-05-03T03:08:16;9.57;;;3.97;;
35150;SDS011;55720;51.972;4.624;2023-05-03T03:10:42;5.57;;;3.80;;
35150;SDS011;55720;51.972;4.624;2023-05-03T03:13:07;7.13;;;3.42;;
35150;SDS011;55720;51.972;4.624;2023-05-03T03:15:33;6.93;;;3.45;;
35150;SDS011;55720;51.972;4.624;2023-05-03T03:17:58;6.65;;;3.50;;
35150;SDS011;55720;51.972;4.624;2023-05-03T03:20:23;11.70;;;3.60;;
35150;SDS011;55720;51.972;4.624;2023-05-03T03:22:49;6.95;;;3.88;;
35150;SDS011;55720;51.972;4.624;2023-05-03T03:25:14;8.27;;;3.60;;
35150;SDS011;55720;51.972;4.624;2023-05-03T03:27:40;5.03;;;3.13;;
35150;SDS011;55720;51.972;4.624;2023-05-03T03:30:05;3.97;;;3.28;;
35150;SDS011;55720;51.972;4.624;2023-05-03T03:32:32;5.10;;;3.65;;
35150;SDS011;55720;51.972;4.624;2023-05-03T03:34:57;7.75;;;3.45;;
35150;SDS011;55720;51.972;4.624;2023-05-03T03:37:23;10.70;;;4.85;;
35150;SDS011;55720;51.972;4.624;2023-05-03T03:39:48;7.38;;;3.85;;
35150;SDS011;55720;51.972;4.624;2023-05-03T03:42:14;3.97;;;3.10;;
35150;SDS011;55720;51.972;4.624;2023-05-03T03:44:39;5.63;;;3.55;;
35150;SDS011;55720;51.972;4.624;2023-05-03T03:47:05;5.35;;;3.60;;
35150;SDS011;55720;51.972;4.624;2023-05-03T03:49:30;13.00;;;3.72;;
35150;SDS011;55720;51.972;4.624;2023-05-03T03:51:55;6.72;;;3.70;;
35150;SDS011;55720;51.972;4.624;2023-05-03T03:54:21;6.60;;;3.22;;
35150;SDS011;55720;51.972;4.624;2023-05-03T03:56:46;10.43;;;3.58;;
35150;SDS011;55720;51.972;4.624;2023-05-03T03:59:11;6.45;;;3.40;;
35150;SDS011;55720;51.972;4.624;2023-05-03T04:01:37;6.00;;;3.33;;
35150;SDS011;55720;51.972;4.624;2023-05-03T04:04:03;5.18;;;3.35;;
35150;SDS011;55720;51.972;4.624;2023-05-03T04:06:28;8.07;;;3.08;;
35150;SDS011;55720;51.972;4.624;2023-05-03T04:08:54;9.30;;;3.92;;
35150;SDS011;55720;51.972;4.624;2023-05-03T04:11:19;6.00;;;2.90;;
35150;SDS011;55720;51.972;4.624;2023-05-03T04:13:47;6.20;;;3.28;;
35150;SDS011;55720;51.972;4.624;2023-05-03T04:16:13;6.18;;;3.25;;
35150;SDS011;55720;51.972;4.624;2023-05-03T04:18:39;7.60;;;3.42;;
35150;SDS011;55720;51.972;4.624;2023-05-03T04:21:05;4.45;;;3.00;;
35150;SDS011;55720;51.972;4.624;2023-05-03T04:23:30;4.15;;;3.10;;
35150;SDS011;55720;51.972;4.624;2023-05-03T04:25:56;7.70;;;3.53;;
35150;SDS011;55720;51.972;4.624;2023-05-03T04:28:21;8.38;;;3.40;;
35150;SDS011;55720;51.972;4.624;2023-05-03T04:30:47;5.65;;;3.47;;
35150;SDS011;55720;51.972;4.624;2023-05-03T04:33:13;8.55;;;3.90;;
35150;SDS011;55720;51.972;4.624;2023-05-03T04:35:39;9.60;;;3.80;;
35150;SDS011;55720;51.972;4.624;2023-05-03T04:38:05;8.98;;;4.05;;
35150;SDS011;55720;51.972;4.624;2023-05-03T04:40:30;9.68;;;3.70;;
35150;SDS011;55720;51.972;4.624;2023-05-03T04:42:56;10.50;;;3.90;;
35150;SDS011;55720;51.972;4.624;2023-05-03T04:45:21;8.85;;;3.65;;
35150;SDS011;55720;51.972;4.624;2023-05-03T04:47:48;8.20;;;3.60;;
35150;SDS011;55720;51.972;4.624;2023-05-03T04:50:16;8.65;;;2.85;;
35150;SDS011;55720;51.972;4.624;2023-05-03T04:52:42;7.63;;;3.20;;
35150;SDS011;55720;51.972;4.624;2023-05-03T04:55:07;4.70;;;3.45;;
35150;SDS011;55720;51.972;4.624;2023-05-03T04:57:33;3.05;;;2.70;;
35150;SDS011;55720;51.972;4.624;2023-05-03T04:59:59;3.45;;;2.63;;
35150;SDS011;55720;51.972;4.624;2023-05-03T05:02:25;6.45;;;2.80;;
35150;SDS011;55720;51.972;4.624;2023-05-03T05:04:51;4.28;;;2.40;;
35150;SDS011;55720;51.972;4.624;2023-05-03T05:07:17;6.50;;;2.47;;
35150;SDS011;55720;51.972;4.624;2023-05-03T05:09:42;3.53;;;2.42;;
35150;SDS011;55720;51.972;4.624;2023-05-03T05:12:08;3.50;;;2.33;;
35150;SDS011;55720;51.972;4.624;2023-05-03T05:14:33;5.05;;;2.47;;
35150;SDS011;55720;51.972;4.624;2023-05-03T05:16:59;2.55;;;2.20;;
35150;SDS011;55720;51.972;4.624;2023-05-03T05:19:24;5.55;;;2.70;;
35150;SDS011;55720;51.972;4.624;2023-05-03T05:21:50;6.55;;;2.50;;
35150;SDS011;55720;51.972;4.624;2023-05-03T05:24:15;2.75;;;1.90;;
35150;SDS011;55720;51.972;4.624;2023-05-03T05:26:42;3.03;;;1.90;;
35150;SDS011;55720;51.972;4.624;2023-05-03T05:29:08;3.53;;;1.77;;
35150;SDS011;55720;51.972;4.624;2023-05-03T05:31:33;4.80;;;2.30;;
35150;SDS011;55720;51.972;4.624;2023-05-03T05:33:59;4.38;;;2.05;;
35150;SDS011;55720;51.972;4.624;2023-05-03T05:36:24;2.75;;;1.85;;
35150;SDS011;55720;51.972;4.624;2023-05-03T05:38:50;5.55;;;1.45;;
35150;SDS011;55720;51.972;4.624;2023-05-03T05:41:15;2.97;;;1.50;;
35150;SDS011;55720;51.972;4.624;2023-05-03T05:43:41;5.40;;;1.27;;
35150;SDS011;55720;51.972;4.624;2023-05-03T05:46:06;2.92;;;1.20;;
35150;SDS011;55720;51.972;4.624;2023-05-03T05:48:32;7.05;;;1.45;;
35150;SDS011;55720;51.972;4.624;2023-05-03T05:50:58;2.45;;;1.15;;
35150;SDS011;55720;51.972;4.624;2023-05-03T05:53:23;1.33;;;1.17;;
35150;SDS011;55720;51.972;4.624;2023-05-03T05:55:49;4.30;;;1.23;;
35150;SDS011;55720;51.972;4.624;2023-05-03T05:58:14;4.28;;;1.65;;
35150;SDS011;55720;51.972;4.624;2023-05-03T06:00:39;4.55;;;1.38;;
35150;SDS011;55720;51.972;4.624;2023-05-03T06:03:05;3.45;;;1.50;;
35150;SDS011;55720;51.972;4.624;2023-05-03T06:05:31;4.97;;;1.75;;
35150;SDS011;55720;51.972;4.624;2023-05-03T06:07:56;2.25;;;1.30;;
35150;SDS011;55720;51.972;4.624;2023-05-03T06:10:22;7.72;;;1.92;;
35150;SDS011;55720;51.972;4.624;2023-05-03T06:12:47;5.55;;;1.90;;
35150;SDS011;55720;51.972;4.624;2023-05-03T06:15:13;7.20;;;1.90;;
35150;SDS011;55720;51.972;4.624;2023-05-03T06:17:38;3.30;;;1.95;;
35150;SDS011;55720;51.972;4.624;2023-05-03T06:20:04;2.13;;;1.70;;
35150;SDS011;55720;51.972;4.624;2023-05-03T06:22:30;7.47;;;1.90;;
35150;SDS011;55720;51.972;4.624;2023-05-03T06:24:55;9.05;;;1.60;;
35150;SDS011;55720;51.972;4.624;2023-05-03T06:27:21;3.70;;;1.88;;
35150;SDS011;55720;51.972;4.624;2023-05-03T06:29:47;4.30;;;1.50;;
35150;SDS011;55720;51.972;4.624;2023-05-03T06:32:13;3.08;;;1.73;;
35150;SDS011;55720;51.972;4.624;2023-05-03T06:34:39;3.58;;;1.30;;
35150;SDS011;55720;51.972;4.624;2023-05-03T06:37:04;2.42;;;1.20;;
35150;SDS011;55720;51.972;4.624;2023-05-03T06:39:30;5.30;;;1.60;;
35150;SDS011;55720;51.972;4.624;2023-05-03T06:41:55;4.30;;;1.48;;
35150;SDS011;55720;51.972;4.624;2023-05-03T06:44:21;1.77;;;1.27;;
35150;SDS011;55720;51.972;4.624;2023-05-03T06:46:46;3.45;;;1.73;;
35150;SDS011;55720;51.972;4.624;2023-05-03T06:49:11;3.35;;;1.25;;
35150;SDS011;55720;51.972;4.624;2023-05-03T06:51:37;4.43;;;1.75;;
35150;SDS011;55720;51.972;4.624;2023-05-03T06:54:02;2.03;;;1.08;;
35150;SDS011;55720;51.972;4.624;2023-05-03T06:56:32;2.35;;;1.23;;
35150;SDS011;55720;51.972;4.624;2023-05-03T06:59:00;4.10;;;1.13;;
35150;SDS011;55720;51.972;4.624;2023-05-03T07:01:28;4.20;;;1.10;;
35150;SDS011;55720;51.972;4.624;2023-05-03T07:03:55;4.45;;;1.48;;
35150;SDS011;55720;51.972;4.624;2023-05-03T07:06:20;4.90;;;1.25;;
35150;SDS011;55720;51.972;4.624;2023-05-03T07:08:49;3.83;;;1.00;;
35150;SDS011;55720;51.972;4.624;2023-05-03T07:11:16;6.90;;;1.48;;
35150;SDS011;55720;51.972;4.624;2023-05-03T07:13:41;7.00;;;1.48;;
35150;SDS011;55720;51.972;4.624;2023-05-03T07:16:06;3.40;;;1.02;;
35150;SDS011;55720;51.972;4.624;2023-05-03T07:18:32;3.78;;;1.02;;
35150;SDS011;55720;51.972;4.624;2023-05-03T07:20:57;1.48;;;1.08;;
35150;SDS011;55720;51.972;4.624;2023-05-03T07:23:23;3.03;;;1.10;;
35150;SDS011;55720;51.972;4.624;2023-05-03T07:25:49;7.28;;;1.27;;
35150;SDS011;55720;51.972;4.624;2023-05-03T07:28:15;5.97;;;1.00;;
35150;SDS011;55720;51.972;4.624;2023-05-03T07:30:40;4.07;;;1.00;;
35150;SDS011;55720;51.972;4.624;2023-05-03T07:33:06;4.47;;;0.68;;
35150;SDS011;55720;51.972;4.624;2023-05-03T07:35:32;4.75;;;1.35;;
35150;SDS011;55720;51.972;4.624;2023-05-03T07:37:57;5.25;;;0.80;;
35150;SDS011;55720;51.972;4.624;2023-05-03T07:40:22;3.10;;;0.80;;
35150;SDS011;55720;51.972;4.624;2023-05-03T07:42:48;4.68;;;1.10;;
35150;SDS011;55720;51.972;4.624;2023-05-03T07:45:14;2.92;;;1.05;;
35150;SDS011;55720;51.972;4.624;2023-05-03T07:47:39;6.55;;;0.88;;
35150;SDS011;55720;51.972;4.624;2023-05-03T07:50:05;6.57;;;1.00;;
35150;SDS011;55720;51.972;4.624;2023-05-03T07:52:34;2.22;;;1.15;;
35150;SDS011;55720;51.972;4.624;2023-05-03T07:55:03;2.40;;;0.90;;
35150;SDS011;55720;51.972;4.624;2023-05-03T07:57:30;2.85;;;1.02;;
35150;SDS011;55720;51.972;4.624;2023-05-03T07:59:56;5.68;;;1.08;;
35150;SDS011;55720;51.972;4.624;2023-05-03T08:02:21;1.77;;;1.15;;
35150;SDS011;55720;51.972;4.624;2023-05-03T08:04:48;2.95;;;0.95;;
35150;SDS011;55720;51.972;4.624;2023-05-03T08:07:13;2.70;;;0.90;;
35150;SDS011;55720;51.972;4.624;2023-05-03T08:09:39;3.78;;;1.20;;
35150;SDS011;55720;51.972;4.624;2023-05-03T08:12:05;4.05;;;1.10;;
35150;SDS011;55720;51.972;4.624;2023-05-03T08:14:31;5.53;;;1.10;;
35150;SDS011;55720;51.972;4.624;2023-05-03T08:16:57;3.88;;;1.02;;
35150;SDS011;55720;51.972;4.624;2023-05-03T08:19:23;4.55;;;0.95;;
35150;SDS011;55720;51.972;4.624;2023-05-03T08:21:49;4.20;;;1.00;;
35150;SDS011;55720;51.972;4.624;2023-05-03T08:24:16;4.80;;;1.38;;
35150;SDS011;55720;51.972;4.624;2023-05-03T08:26:41;6.25;;;1.02;;
35150;SDS011;55720;51.972;4.624;2023-05-03T08:29:09;4.40;;;1.10;;
35150;SDS011;55720;51.972;4.624;2023-05-03T08:31:34;5.10;;;1.17;;
35150;SDS011;55720;51.972;4.624;2023-05-03T08:33:59;9.32;;;0.90;;
35150;SDS011;55720;51.972;4.624;2023-05-03T08:36:25;3.92;;;1.08;;
35150;SDS011;55720;51.972;4.624;2023-05-03T08:38:51;4.18;;;1.08;;
35150;SDS011;55720;51.972;4.624;2023-05-03T08:41:27;4.60;;;1.30;;
35150;SDS011;55720;51.972;4.624;2023-05-03T08:43:54;4.57;;;1.20;;
35150;SDS011;55720;51.972;4.624;2023-05-03T08:46:20;3.63;;;1.15;;
35150;SDS011;55720;51.972;4.624;2023-05-03T08:48:47;3.50;;;1.13;;
35150;SDS011;55720;51.972;4.624;2023-05-03T08:51:15;1.83;;;1.10;;
35150;SDS011;55720;51.972;4.624;2023-05-03T08:53:41;4.18;;;1.50;;
35150;SDS011;55720;51.972;4.624;2023-05-03T08:56:07;2.65;;;1.08;;
35150;SDS011;55720;51.972;4.624;2023-05-03T08:58:34;3.60;;;1.08;;
35150;SDS011;55720;51.972;4.624;2023-05-03T09:01:07;1.80;;;1.27;;
35150;SDS011;55720;51.972;4.624;2023-05-03T09:03:34;3.05;;;1.25;;
35150;SDS011;55720;51.972;4.624;2023-05-03T09:06:00;5.43;;;1.33;;
35150;SDS011;55720;51.972;4.624;2023-05-03T09:08:29;1.63;;;1.30;;
35150;SDS011;55720;51.972;4.624;2023-05-03T09:10:55;4.60;;;1.77;;
35150;SDS011;55720;51.972;4.624;2023-05-03T09:13:21;6.05;;;1.70;;
35150;SDS011;55720;51.972;4.624;2023-05-03T09:15:55;2.97;;;1.70;;
35150;SDS011;55720;51.972;4.624;2023-05-03T09:18:21;2.95;;;1.90;;
35150;SDS011;55720;51.972;4.624;2023-05-03T09:20:48;4.78;;;1.75;;
35150;SDS011;55720;51.972;4.624;2023-05-03T09:23:17;6.03;;;1.85;;
35150;SDS011;55720;51.972;4.624;2023-05-03T09:25:55;5.53;;;1.90;;
35150;SDS011;55720;51.972;4.624;2023-05-03T09:28:21;6.47;;;2.13;;
35150;SDS011;55720;51.972;4.624;2023-05-03T09:30:47;2.17;;;1.65;;
35150;SDS011;55720;51.972;4.624;2023-05-03T09:33:14;4.63;;;1.88;;
35150;SDS011;55720;51.972;4.624;2023-05-03T09:35:57;2.75;;;1.63;;
35150;SDS011;55720;51.972;4.624;2023-05-03T09:38:27;4.07;;;2.03;;
35150;SDS011;55720;51.972;4.624;2023-05-03T09:40:53;4.72;;;2.08;;
35150;SDS011;55720;51.972;4.624;2023-05-03T09:43:19;6.15;;;1.92;;
35150;SDS011;55720;51.972;4.624;2023-05-03T09:45:44;5.40;;;2.22;;
35150;SDS011;55720;51.972;4.624;2023-05-03T09:48:09;9.65;;;2.05;;
35150;SDS011;55720;51.972;4.624;2023-05-03T09:50:36;4.47;;;1.75;;
35150;SDS011;55720;51.972;4.624;2023-05-03T09:53:02;4.18;;;1.98;;
35150;SDS011;55720;51.972;4.624;2023-05-03T09:55:32;5.25;;;2.20;;
35150;SDS011;55720;51.972;4.624;2023-05-03T09:57:58;10.25;;;2.33;;
35150;SDS011;55720;51.972;4.624;2023-05-03T10:00:24;4.40;;;1.98;;
35150;SDS011;55720;51.972;4.624;2023-05-03T10:02:51;6.38;;;2.67;;
35150;SDS011;55720;51.972;4.624;2023-05-03T10:05:21;2.78;;;1.92;;
35150;SDS011;55720;51.972;4.624;2023-05-03T10:07:51;4.20;;;1.77;;
35150;SDS011;55720;51.972;4.624;2023-05-03T10:10:22;2.42;;;1.60;;
35150;SDS011;55720;51.972;4.624;2023-05-03T10:12:48;4.68;;;2.20;;
35150;SDS011;55720;51.972;4.624;2023-05-03T10:15:17;4.35;;;2.00;;
35150;SDS011;55720;51.972;4.624;2023-05-03T10:17:45;4.60;;;1.80;;
35150;SDS011;55720;51.972;4.624;2023-05-03T10:20:35;4.05;;;2.58;;
35150;SDS011;55720;51.972;4.624;2023-05-03T10:25:35;2.45;;;1.92;;
35150;SDS011;55720;51.972;4.624;2023-05-03T10:28:05;5.72;;;2.22;;
35150;SDS011;55720;51.972;4.624;2023-05-03T10:30:32;3.63;;;2.15;;
35150;SDS011;55720;51.972;4.624;2023-05-03T10:35:34;5.47;;;2.25;;
35150;SDS011;55720;51.972;4.624;2023-05-03T10:38:12;2.50;;;2.07;;
35150;SDS011;55720;51.972;4.624;2023-05-03T10:40:41;5.72;;;2.17;;
35150;SDS011;55720;51.972;4.624;2023-05-03T10:43:40;4.00;;;2.20;;
35150;SDS011;55720;51.972;4.624;2023-05-03T10:45:56;4.47;;;2.38;;
35150;SDS011;55720;51.972;4.624;2023-05-03T10:48:26;5.70;;;2.40;;
35150;SDS011;55720;51.972;4.624;2023-05-03T10:50:53;2.65;;;2.17;;
35150;SDS011;55720;51.972;4.624;2023-05-03T10:58:34;6.32;;;2.72;;
35150;SDS011;55720;51.972;4.624;2023-05-03T11:01:04;3.83;;;2.67;;
35150;SDS011;55720;51.972;4.624;2023-05-03T11:03:41;3.30;;;2.60;;
35150;SDS011;55720;51.972;4.624;2023-05-03T11:06:25;6.93;;;2.72;;
35150;SDS011;55720;51.972;4.624;2023-05-03T11:08:55;5.75;;;2.38;;
35150;SDS011;55720;51.972;4.624;2023-05-03T11:11:20;3.33;;;2.60;;
35150;SDS011;55720;51.972;4.624;2023-05-03T11:13:46;5.80;;;2.58;;
35150;SDS011;55720;51.972;4.624;2023-05-03T11:16:11;6.40;;;2.80;;
35150;SDS011;55720;51.972;4.624;2023-05-03T11:18:37;4.90;;;2.45;;
35150;SDS011;55720;51.972;4.624;2023-05-03T11:21:03;5.18;;;2.97;;
35150;SDS011;55720;51.972;4.624;2023-05-03T11:23:28;6.88;;;2.78;;
35150;SDS011;55720;51.972;4.624;2023-05-03T11:25:54;4.28;;;2.60;;
35150;SDS011;55720;51.972;4.624;2023-05-03T11:28:21;4.97;;;2.83;;
35150;SDS011;55720;51.972;4.624;2023-05-03T11:30:47;4.03;;;2.75;;
35150;SDS011;55720;51.972;4.624;2023-05-03T11:33:16;5.13;;;2.80;;
35150;SDS011;55720;51.972;4.624;2023-05-03T11:35:41;4.65;;;3.03;;
35150;SDS011;55720;51.972;4.624;2023-05-03T11:38:07;3.45;;;2.90;;
35150;SDS011;55720;51.972;4.624;2023-05-03T11:40:34;3.25;;;2.63;;
35150;SDS011;55720;51.972;4.624;2023-05-03T11:43:00;6.60;;;2.53;;
35150;SDS011;55720;51.972;4.624;2023-05-03T11:45:44;4.28;;;2.95;;
35150;SDS011;55720;51.972;4.624;2023-05-03T11:48:12;3.22;;;2.67;;
35150;SDS011;55720;51.972;4.624;2023-05-03T11:50:51;7.07;;;3.05;;
35150;SDS011;55720;51.972;4.624;2023-05-03T11:53:23;3.38;;;2.63;;
35150;SDS011;55720;51.972;4.624;2023-05-03T11:55:51;6.95;;;2.83;;
35150;SDS011;55720;51.972;4.624;2023-05-03T11:58:22;6.63;;;3.00;;
35150;SDS011;55720;51.972;4.624;2023-05-03T12:00:52;6.93;;;3.42;;
35150;SDS011;55720;51.972;4.624;2023-05-03T12:03:36;6.32;;;2.65;;
35150;SDS011;55720;51.972;4.624;2023-05-03T12:06:01;3.58;;;3.15;;
35150;SDS011;55720;51.972;4.624;2023-05-03T12:08:28;8.52;;;2.90;;
35150;SDS011;55720;51.972;4.624;2023-05-03T12:10:56;4.90;;;3.08;;
35150;SDS011;55720;51.972;4.624;2023-05-03T12:13:31;5.88;;;3.30;;
35150;SDS011;55720;51.972;4.624;2023-05-03T12:15:59;4.85;;;2.70;;
35150;SDS011;55720;51.972;4.624;2023-05-03T12:18:26;4.90;;;3.20;;
35150;SDS011;55720;51.972;4.624;2023-05-03T12:20:55;4.03;;;2.95;;
35150;SDS011;55720;51.972;4.624;2023-05-03T12:23:22;9.00;;;3.42;;
35150;SDS011;55720;51.972;4.624;2023-05-03T12:25:50;5.82;;;3.03;;
35150;SDS011;55720;51.972;4.624;2023-05-03T12:28:16;6.32;;;2.80;;
35150;SDS011;55720;51.972;4.624;2023-05-03T12:30:42;4.93;;;2.83;;
35150;SDS011;55720;51.972;4.624;2023-05-03T12:33:08;5.13;;;3.08;;
35150;SDS011;55720;51.972;4.624;2023-05-03T12:35:34;4.32;;;2.38;;
35150;SDS011;55720;51.972;4.624;2023-05-03T12:38:00;4.82;;;2.50;;
35150;SDS011;55720;51.972;4.624;2023-05-03T12:40:28;7.60;;;2.85;;
35150;SDS011;55720;51.972;4.624;2023-05-03T12:42:53;7.55;;;2.58;;
35150;SDS011;55720;51.972;4.624;2023-05-03T12:45:20;11.63;;;3.08;;
35150;SDS011;55720;51.972;4.624;2023-05-03T12:47:46;5.85;;;3.47;;
35150;SDS011;55720;51.972;4.624;2023-05-03T12:50:11;5.68;;;3.42;;
35150;SDS011;55720;51.972;4.624;2023-05-03T12:52:36;3.10;;;2.75;;
35150;SDS011;55720;51.972;4.624;2023-05-03T12:55:03;6.57;;;2.97;;
35150;SDS011;55720;51.972;4.624;2023-05-03T12:57:29;9.88;;;3.20;;
35150;SDS011;55720;51.972;4.624;2023-05-03T12:59:55;6.57;;;3.65;;
35150;SDS011;55720;51.972;4.624;2023-05-03T13:02:21;4.57;;;2.78;;
35150;SDS011;55720;51.972;4.624;2023-05-03T13:04:47;3.83;;;2.75;;
35150;SDS011;55720;51.972;4.624;2023-05-03T13:07:23;6.03;;;2.90;;
35150;SDS011;55720;51.972;4.624;2023-05-03T13:09:52;4.00;;;2.78;;
35150;SDS011;55720;51.972;4.624;2023-05-03T13:12:18;4.18;;;2.80;;
35150;SDS011;55720;51.972;4.624;2023-05-03T13:14:45;4.03;;;2.92;;
35150;SDS011;55720;51.972;4.624;2023-05-03T13:17:12;5.03;;;2.92;;
35150;SDS011;55720;51.972;4.624;2023-05-03T13:19:39;5.90;;;3.17;;
35150;SDS011;55720;51.972;4.624;2023-05-03T13:22:06;4.38;;;2.75;;
35150;SDS011;55720;51.972;4.624;2023-05-03T13:24:31;4.50;;;2.90;;
35150;SDS011;55720;51.972;4.624;2023-05-03T13:26:57;5.13;;;3.20;;
35150;SDS011;55720;51.972;4.624;2023-05-03T13:29:22;3.00;;;2.78;;
35150;SDS011;55720;51.972;4.624;2023-05-03T13:31:48;6.70;;;3.00;;
35150;SDS011;55720;51.972;4.624;2023-05-03T13:34:14;6.60;;;3.10;;
35150;SDS011;55720;51.972;4.624;2023-05-03T13:36:39;5.35;;;2.95;;
35150;SDS011;55720;51.972;4.624;2023-05-03T13:39:05;9.77;;;3.28;;
35150;SDS011;55720;51.972;4.624;2023-05-03T13:41:33;4.95;;;3.10;;
35150;SDS011;55720;51.972;4.624;2023-05-03T13:43:58;5.78;;;3.30;;
35150;SDS011;55720;51.972;4.624;2023-05-03T13:46:24;5.28;;;3.28;;
35150;SDS011;55720;51.972;4.624;2023-05-03T13:48:49;3.85;;;3.05;;
35150;SDS011;55720;51.972;4.624;2023-05-03T13:51:15;4.75;;;2.65;;
35150;SDS011;55720;51.972;4.624;2023-05-03T13:53:41;4.00;;;2.40;;
35150;SDS011;55720;51.972;4.624;2023-05-03T13:56:07;8.13;;;3.00;;
35150;SDS011;55720;51.972;4.624;2023-05-03T13:58:32;5.97;;;3.15;;
35150;SDS011;55720;51.972;4.624;2023-05-03T14:01:01;8.43;;;3.22;;
35150;SDS011;55720;51.972;4.624;2023-05-03T14:03:26;7.03;;;2.85;;
35150;SDS011;55720;51.972;4.624;2023-05-03T14:05:51;6.78;;;3.25;;
35150;SDS011;55720;51.972;4.624;2023-05-03T14:08:17;5.68;;;3.13;;
35150;SDS011;55720;51.972;4.624;2023-05-03T14:10:42;6.80;;;2.80;;
35150;SDS011;55720;51.972;4.624;2023-05-03T14:13:08;6.68;;;3.20;;
35150;SDS011;55720;51.972;4.624;2023-05-03T14:15:37;8.15;;;3.05;;
35150;SDS011;55720;51.972;4.624;2023-05-03T14:18:03;5.32;;;3.20;;
35150;SDS011;55720;51.972;4.624;2023-05-03T14:20:29;7.70;;;3.88;;
35150;SDS011;55720;51.972;4.624;2023-05-03T14:22:54;3.60;;;3.30;;
35150;SDS011;55720;51.972;4.624;2023-05-03T14:25:20;9.52;;;3.30;;
35150;SDS011;55720;51.972;4.624;2023-05-03T14:27:45;5.85;;;3.22;;
35150;SDS011;55720;51.972;4.624;2023-05-03T14:30:11;6.05;;;3.45;;
35150;SDS011;55720;51.972;4.624;2023-05-03T14:32:37;5.63;;;3.40;;
35150;SDS011;55720;51.972;4.624;2023-05-03T14:35:02;6.40;;;3.20;;
35150;SDS011;55720;51.972;4.624;2023-05-03T14:37:28;5.82;;;3.60;;
35150;SDS011;55720;51.972;4.624;2023-05-03T14:39:54;4.22;;;3.00;;
35150;SDS011;55720;51.972;4.624;2023-05-03T14:42:20;3.53;;;2.88;;
35150;SDS011;55720;51.972;4.624;2023-05-03T14:44:45;4.28;;;3.35;;
35150;SDS011;55720;51.972;4.624;2023-05-03T14:47:10;5.03;;;2.95;;
35150;SDS011;55720;51.972;4.624;2023-05-03T14:49:36;7.57;;;3.03;;
35150;SDS011;55720;51.972;4.624;2023-05-03T14:52:05;9.13;;;4.60;;
35150;SDS011;55720;51.972;4.624;2023-05-03T14:54:34;7.55;;;3.10;;
35150;SDS011;55720;51.972;4.624;2023-05-03T14:57:00;8.88;;;3.25;;
35150;SDS011;55720;51.972;4.624;2023-05-03T14:59:26;9.25;;;3.60;;
35150;SDS011;55720;51.972;4.624;2023-05-03T15:01:51;3.30;;;2.97;;
35150;SDS011;55720;51.972;4.624;2023-05-03T15:04:17;4.20;;;2.72;;
35150;SDS011;55720;51.972;4.624;2023-05-03T15:06:43;7.47;;;3.28;;